Time;durP1;ratioP1;P1;durP2;ratioP2;P2;SDS_P1;SDS_P2;PMS_P1;PMS_P2;Temp;Humidity;BMP_temperature;BMP_pressure;BME280_temperature;BME280_humidity;BME280_pressure;Samples;Min_cycle;Max_cycle;Signal;HPM_P1;HPM_P2
2022/01/03 00:02:24;;;;;;;9.73;3.80;;;12.00;99.90;;;;;;6092796;29;20116;-81
2022/01/03 00:05:25;;;;;;;8.20;3.88;;;12.00;99.90;;;;;;6107961;29;20028;-80
2022/01/03 00:08:26;;;;;;;7.03;2.92;;;12.00;99.90;;;;;;6108384;29;20071;-81
2022/01/03 00:11:27;;;;;;;10.07;3.20;;;11.90;99.90;;;;;;6108221;29;20040;-81
2022/01/03 00:14:28;;;;;;;5.30;3.00;;;12.00;99.90;;;;;;6108014;29;20473;-82
2022/01/03 00:17:29;;;;;;;7.22;3.00;;;12.00;99.90;;;;;;6092197;29;20039;-83
2022/01/03 00:20:30;;;;;;;7.93;3.20;;;12.00;99.90;;;;;;6122766;29;20379;-81
2022/01/03 00:23:30;;;;;;;7.05;3.50;;;12.00;99.90;;;;;;6092492;29;20040;-82
2022/01/03 00:26:31;;;;;;;8.95;3.20;;;12.00;99.90;;;;;;6091142;29;20545;-81
2022/01/03 00:29:46;;;;;;;9.15;3.35;;;12.10;99.90;;;;;;6091623;29;20039;-82
2022/01/03 00:32:48;;;;;;;6.30;3.45;;;11.90;99.90;;;;;;6092110;29;20118;-81
2022/01/03 00:35:58;;;;;;;5.17;2.90;;;11.90;99.90;;;;;;6107103;29;20044;-82
2022/01/03 00:38:59;;;;;;;9.25;3.92;;;11.80;99.90;;;;;;6091975;29;20027;-83
2022/01/03 00:42:00;;;;;;;10.15;3.50;;;12.00;99.90;;;;;;6107836;29;20040;-83
2022/01/03 00:45:01;;;;;;;9.00;2.95;;;;;;;;;;6090613;29;20394;-82
2022/01/03 00:48:08;;;;;;;7.18;2.95;;;11.80;99.90;;;;;;6123977;29;20055;-82
2022/01/03 00:51:09;;;;;;;9.88;3.50;;;11.80;99.90;;;;;;6107354;29;20063;-83
2022/01/03 00:54:09;;;;;;;7.70;3.97;;;11.80;99.90;;;;;;6089952;29;20055;-81
2022/01/03 00:57:19;;;;;;;10.15;3.00;;;11.90;99.90;;;;;;6092267;29;20118;-82
2022/01/03 01:00:20;;;;;;;7.25;3.00;;;11.80;99.90;;;;;;6090974;29;20036;-83
2022/01/03 01:03:21;;;;;;;7.38;3.00;;;11.80;99.90;;;;;;6106246;29;20043;-84
2022/01/03 01:06:23;;;;;;;8.77;3.22;;;11.80;99.90;;;;;;6123317;29;20035;-82
2022/01/03 01:09:25;;;;;;;9.98;3.30;;;11.60;99.90;;;;;;6089103;29;20039;-81
2022/01/03 01:12:27;;;;;;;5.25;2.75;;;;;;;;;;6106033;29;20550;-82
2022/01/03 01:15:27;;;;;;;11.27;3.50;;;11.80;99.90;;;;;;6106045;29;20056;-82
2022/01/03 01:18:31;;;;;;;7.22;3.10;;;11.70;99.90;;;;;;6090694;29;20487;-83
2022/01/03 01:21:32;;;;;;;8.95;3.00;;;11.70;99.90;;;;;;6091320;29;20055;-81
2022/01/03 01:24:45;;;;;;;7.78;3.03;;;;;;;;;;6106081;29;20379;-81
2022/01/03 01:27:50;;;;;;;8.55;2.90;;;11.70;99.90;;;;;;6106090;29;20027;-81
2022/01/03 01:30:53;;;;;;;12.60;2.80;;;11.90;99.90;;;;;;6104802;29;20032;-81
2022/01/03 01:33:56;;;;;;;8.55;3.25;;;11.90;99.90;;;;;;6104382;29;20087;-81
2022/01/03 01:36:58;;;;;;;6.13;2.75;;;11.50;99.90;;;;;;6121934;29;20034;-81
2022/01/03 01:39:59;;;;;;;7.78;3.00;;;11.40;99.90;;;;;;6090456;29;20115;-82
2022/01/03 01:43:00;;;;;;;7.97;3.25;;;;;;;;;;6104578;29;20490;-80
2022/01/03 01:46:03;;;;;;;5.18;2.72;;;11.70;99.90;;;;;;6106127;29;20457;-80
2022/01/03 01:49:05;;;;;;;7.97;2.80;;;11.60;99.90;;;;;;6122009;29;20035;-81
2022/01/03 01:52:05;;;;;;;7.07;2.60;;;11.70;99.90;;;;;;6104181;29;20020;-81
2022/01/03 01:55:08;;;;;;;9.38;3.33;;;11.60;99.90;;;;;;6104987;29;20510;-81
2022/01/03 01:58:28;;;;;;;5.30;2.72;;;11.60;99.90;;;;;;6083442;29;20047;-81
2022/01/03 02:01:40;;;;;;;8.10;3.08;;;11.60;99.90;;;;;;6120597;29;20016;-81
2022/01/03 02:05:03;;;;;;;6.22;2.70;;;11.50;99.90;;;;;;6121682;29;20050;-81
2022/01/03 02:08:15;;;;;;;6.82;2.78;;;11.60;99.90;;;;;;6106523;29;20039;-81
2022/01/03 02:11:31;;;;;;;8.27;2.78;;;11.60;99.90;;;;;;6103618;29;20031;-79
2022/01/03 02:14:36;;;;;;;7.35;2.50;;;11.70;99.90;;;;;;6089488;29;20039;-79
2022/01/03 02:17:37;;;;;;;9.88;3.80;;;11.60;99.90;;;;;;6106576;29;20035;-80
2022/01/03 02:20:38;;;;;;;8.80;2.70;;;11.60;99.90;;;;;;6104447;29;20127;-81
2022/01/03 02:23:39;;;;;;;6.72;2.85;;;11.70;99.90;;;;;;6090509;29;20027;-81
2022/01/03 02:26:40;;;;;;;8.10;2.97;;;11.80;99.90;;;;;;6088618;29;20047;-81
2022/01/03 02:29:43;;;;;;;8.40;2.90;;;11.70;99.90;;;;;;6104929;29;20463;-80
2022/01/03 02:32:44;;;;;;;8.30;3.20;;;11.70;99.90;;;;;;6105656;29;20488;-80
2022/01/03 02:35:45;;;;;;;7.57;2.78;;;11.60;99.90;;;;;;6088097;29;20044;-79
2022/01/03 02:38:46;;;;;;;7.47;2.70;;;11.60;99.90;;;;;;6104300;29;20032;-80
2022/01/03 02:41:46;;;;;;;7.18;3.15;;;11.50;99.90;;;;;;6105222;29;20032;-80
2022/01/03 02:44:47;;;;;;;9.57;3.05;;;11.50;99.90;;;;;;6103236;29;20493;-80
2022/01/03 02:47:53;;;;;;;7.65;2.80;;;11.50;99.90;;;;;;6088366;29;20083;-81
2022/01/03 02:50:54;;;;;;;9.15;2.58;;;11.50;99.90;;;;;;6104141;29;20024;-80
2022/01/03 02:53:54;;;;;;;7.40;2.67;;;11.50;99.90;;;;;;6106020;29;20491;-81
2022/01/03 02:56:56;;;;;;;6.32;2.80;;;11.50;99.90;;;;;;6103917;29;20110;-81
2022/01/03 02:59:57;;;;;;;9.18;2.50;;;11.40;99.90;;;;;;6104486;29;20039;-80
2022/01/03 03:02:57;;;;;;;6.78;3.20;;;11.40;99.90;;;;;;6104665;29;20463;-81
2022/01/03 03:06:01;;;;;;;5.18;2.58;;;11.60;99.90;;;;;;6088230;29;20034;-81
2022/01/03 03:09:04;;;;;;;8.93;2.67;;;11.60;99.90;;;;;;6119760;29;20390;-80
2022/01/03 03:12:05;;;;;;;8.85;2.80;;;11.50;99.90;;;;;;6104436;29;20390;-81
2022/01/03 03:15:08;;;;;;;7.72;2.88;;;11.50;99.90;;;;;;6103558;29;20056;-79
2022/01/03 03:18:10;;;;;;;6.72;2.72;;;11.50;99.90;;;;;;6088531;29;20039;-80
2022/01/03 03:21:10;;;;;;;5.80;2.55;;;11.50;99.90;;;;;;6104320;29;20056;-81
2022/01/03 03:24:11;;;;;;;8.50;3.03;;;11.30;99.90;;;;;;6105266;29;20036;-79
2022/01/03 03:27:12;;;;;;;6.32;2.70;;;11.60;99.90;;;;;;6088093;29;20123;-80
2022/01/03 03:30:25;;;;;;;12.93;3.38;;;11.30;99.90;;;;;;6103306;29;20059;-80
2022/01/03 03:33:29;;;;;;;7.47;2.75;;;11.50;99.90;;;;;;6119664;29;20027;-80
2022/01/03 03:36:29;;;;;;;6.03;2.53;;;11.50;99.90;;;;;;6105219;29;20490;-81
2022/01/03 03:39:33;;;;;;;6.38;3.00;;;11.50;99.90;;;;;;6088777;29;20047;-81
2022/01/03 03:42:34;;;;;;;8.70;2.55;;;11.70;99.90;;;;;;6088913;29;20111;-81
2022/01/03 03:45:35;;;;;;;9.68;2.95;;;11.40;99.90;;;;;;6103434;29;20039;-80
2022/01/03 03:48:36;;;;;;;7.78;2.70;;;;;;;;;;6088458;29;20043;-80
2022/01/03 03:51:38;;;;;;;6.18;2.35;;;11.30;99.90;;;;;;6120671;29;20486;-80
2022/01/03 03:54:39;;;;;;;9.25;2.75;;;;;;;;;;6108183;29;20032;-82
2022/01/03 03:57:40;;;;;;;8.25;2.67;;;;;;;;;;6108074;29;20785;-81
2022/01/03 04:00:41;;;;;;;7.40;2.78;;;;;;;;;;6108461;29;20079;-80
2022/01/03 04:03:41;;;;;;;8.38;2.90;;;11.40;99.90;;;;;;6124381;29;20034;-81
2022/01/03 04:06:42;;;;;;;6.55;2.60;;;11.30;99.90;;;;;;6106925;29;20040;-79
2022/01/03 04:09:43;;;;;;;13.45;3.08;;;11.30;99.90;;;;;;6123809;29;20482;-80
2022/01/03 04:12:44;;;;;;;9.02;2.78;;;11.40;99.90;;;;;;6108596;29;20028;-80
2022/01/03 04:15:44;;;;;;;12.25;3.05;;;11.50;99.90;;;;;;6107111;29;20048;-80
2022/01/03 04:18:45;;;;;;;10.20;3.50;;;11.40;99.90;;;;;;6093239;29;20434;-81
2022/01/03 04:21:45;;;;;;;8.13;2.75;;;11.20;99.90;;;;;;6122921;29;20075;-80
2022/01/03 04:24:46;;;;;;;7.72;3.25;;;11.30;99.90;;;;;;6107723;29;20036;-80
2022/01/03 04:27:48;;;;;;;11.15;3.25;;;11.30;99.90;;;;;;6092380;29;20040;-80
2022/01/03 04:30:51;;;;;;;9.25;2.75;;;11.30;99.90;;;;;;6107294;29;20036;-80
2022/01/03 04:33:51;;;;;;;7.03;2.50;;;11.30;99.90;;;;;;6092854;29;20122;-81
2022/01/03 04:36:52;;;;;;;8.98;3.40;;;11.60;99.90;;;;;;6105025;29;20047;-81
2022/01/03 04:39:52;;;;;;;9.98;2.90;;;11.30;99.90;;;;;;6091845;29;20028;-81
2022/01/03 04:42:53;;;;;;;6.65;2.80;;;11.30;99.90;;;;;;6107165;29;20039;-80
2022/01/03 04:45:56;;;;;;;6.57;3.03;;;10.80;99.90;;;;;;6091987;29;20071;-81
2022/01/03 04:48:56;;;;;;;;;;;11.30;99.90;;;;;;6107330;29;20032;-80
2022/01/03 04:51:57;;;;;;;10.23;3.00;;;11.20;99.90;;;;;;6122849;29;19914;-80
2022/01/03 04:54:58;;;;;;;10.15;2.95;;;11.20;99.90;;;;;;6123616;29;20036;-79
2022/01/03 04:57:58;;;;;;;6.80;2.30;;;11.20;99.90;;;;;;6091272;29;20576;-81
2022/01/03 05:00:59;;;;;;;6.00;2.80;;;11.10;99.90;;;;;;6092411;29;20036;-81
2022/01/03 05:04:00;;;;;;;8.45;2.83;;;10.90;99.90;;;;;;6090642;29;20036;-80
2022/01/03 05:07:00;;;;;;;6.78;2.97;;;11.10;99.90;;;;;;6090090;29;20097;-81
2022/01/03 05:10:01;;;;;;;9.15;2.92;;;11.10;99.90;;;;;;6107685;29;20027;-82
2022/01/03 05:13:02;;;;;;;9.23;3.10;;;11.10;99.90;;;;;;6090895;29;20036;-81
2022/01/03 05:16:02;;;;;;;7.40;2.33;;;11.00;99.90;;;;;;6091158;29;20056;-81
2022/01/03 05:19:03;;;;;;;7.78;2.60;;;11.00;99.90;;;;;;6090738;29;20031;-81
2022/01/03 05:22:04;;;;;;;9.85;2.88;;;11.00;99.90;;;;;;6106909;29;20079;-80
2022/01/03 05:25:05;;;;;;;13.00;3.03;;;11.00;99.90;;;;;;6107056;29;20386;-81
2022/01/03 05:28:06;;;;;;;5.45;2.70;;;10.90;99.90;;;;;;6122128;29;20793;-80
2022/01/03 05:31:08;;;;;;;8.02;3.05;;;10.90;99.90;;;;;;6089894;29;20059;-81
2022/01/03 05:34:09;;;;;;;7.63;2.22;;;10.90;99.90;;;;;;6106410;29;20075;-81
2022/01/03 05:37:09;;;;;;;6.88;2.90;;;10.80;99.90;;;;;;6105261;29;20470;-79
2022/01/03 05:40:10;;;;;;;10.15;2.55;;;10.90;99.90;;;;;;6090074;29;20039;-80
2022/01/03 05:43:11;;;;;;;8.95;2.42;;;10.90;99.90;;;;;;6090564;29;20131;-80
2022/01/03 05:46:12;;;;;;;6.97;2.20;;;11.00;99.90;;;;;;6106104;29;20087;-82
2022/01/03 05:49:13;;;;;;;7.97;2.90;;;10.90;99.90;;;;;;6105977;29;20114;-82
2022/01/03 05:52:13;;;;;;;9.68;3.10;;;10.90;99.90;;;;;;6106671;29;20034;-82
2022/01/03 05:55:15;;;;;;;6.90;2.97;;;10.90;99.90;;;;;;6090238;29;20044;-81
2022/01/03 05:58:16;;;;;;;4.60;2.38;;;11.30;99.90;;;;;;6105949;29;20038;-81
2022/01/03 06:01:17;;;;;;;7.38;2.63;;;10.90;99.90;;;;;;6105898;29;20459;-81
2022/01/03 06:04:23;;;;;;;4.70;3.08;;;10.90;99.90;;;;;;6105685;29;20046;-80
2022/01/03 06:07:23;;;;;;;8.75;2.33;;;10.90;99.90;;;;;;6105903;29;20046;-82
2022/01/03 06:10:24;;;;;;;8.75;2.63;;;11.10;99.90;;;;;;6105386;29;20467;-81
2022/01/03 06:13:25;;;;;;;5.47;2.58;;;10.80;99.90;;;;;;6088218;29;20046;-82
2022/01/03 06:16:26;;;;;;;9.05;2.38;;;;;;;;;;6088466;29;20035;-82
2022/01/03 06:19:27;;;;;;;6.18;2.90;;;;;;;;;;6120216;29;20542;-82
2022/01/03 06:22:28;;;;;;;6.45;2.90;;;;;;;;;;6120899;29;20398;-82
2022/01/03 06:25:29;;;;;;;7.18;2.30;;;;;;;;;;6103822;29;20058;-82
2022/01/03 06:28:30;;;;;;;7.82;2.60;;;;;;;;;;6122189;29;20360;-82
2022/01/03 06:31:31;;;;;;;7.93;2.13;;;10.80;99.90;;;;;;6122433;29;20390;-82
2022/01/03 06:34:32;;;;;;;4.07;2.03;;;11.10;99.90;;;;;;6105545;29;20390;-81
2022/01/03 06:37:33;;;;;;;5.60;2.00;;;10.80;99.90;;;;;;6104495;29;20071;-81
2022/01/03 06:40:34;;;;;;;10.30;2.20;;;10.80;99.90;;;;;;6089240;29;20463;-80
2022/01/03 06:43:35;;;;;;;8.77;2.63;;;10.80;99.90;;;;;;6104245;29;20051;-81
2022/01/03 06:46:36;;;;;;;11.43;3.10;;;10.90;99.90;;;;;;6089047;29;20028;-82
2022/01/03 06:49:37;;;;;;;7.93;2.67;;;11.10;99.90;;;;;;6090384;29;20095;-82
2022/01/03 06:52:38;;;;;;;6.95;2.20;;;10.90;99.90;;;;;;6104039;29;20016;-80
2022/01/03 06:55:39;;;;;;;5.85;2.28;;;;;;;;;;6121260;29;20122;-84
2022/01/03 06:58:41;;;;;;;8.60;2.97;;;10.90;99.90;;;;;;6121333;29;20024;-76
2022/01/03 07:01:42;;;;;;;6.50;2.40;;;10.70;99.90;;;;;;6104387;29;20106;-78
2022/01/03 07:04:42;;;;;;;9.88;2.58;;;11.00;99.90;;;;;;6104265;29;20028;-78
2022/01/03 07:07:46;;;;;;;4.70;2.25;;;10.80;99.90;;;;;;6087273;29;20479;-86
2022/01/03 07:10:47;;;;;;;6.60;2.30;;;10.80;99.90;;;;;;6088954;29;20101;-85
2022/01/03 07:13:51;;;;;;;7.43;2.50;;;10.80;99.90;;;;;;6088171;29;20035;-84
2022/01/03 07:20:13;;;;;;;8.32;3.08;;;10.80;99.90;;;;;;6106903;29;20043;-82
2022/01/03 07:23:14;;;;;;;6.68;2.80;;;11.10;99.90;;;;;;6089152;29;20081;-84
2022/01/03 07:26:14;;;;;;;7.70;2.97;;;11.00;99.90;;;;;;6107537;29;20024;-85
2022/01/03 07:29:15;;;;;;;7.00;2.40;;;10.70;99.90;;;;;;6110170;29;20035;-84
2022/01/03 07:32:16;;;;;;;7.25;2.92;;;10.90;99.90;;;;;;6094377;29;20119;-89
2022/01/03 07:35:16;;;;;;;9.35;2.88;;;10.90;99.90;;;;;;6094183;29;20051;-86
2022/01/03 07:38:17;;;;;;;8.60;4.60;;;10.80;99.90;;;;;;6109681;29;20470;-80
2022/01/03 07:41:17;;;;;;;7.32;2.50;;;10.80;99.90;;;;;;6107350;29;20044;-81
2022/01/03 07:44:18;;;;;;;7.65;2.30;;;11.00;99.90;;;;;;6108203;29;20058;-80
2022/01/03 07:47:20;;;;;;;9.52;2.78;;;11.00;99.90;;;;;;6108650;29;20439;-80
2022/01/03 07:50:22;;;;;;;10.10;3.05;;;10.90;99.90;;;;;;6091787;29;20043;-82
2022/01/03 07:53:22;;;;;;;5.00;2.00;;;11.00;99.90;;;;;;6123635;29;20030;-80
2022/01/03 07:56:23;;;;;;;9.00;2.92;;;11.00;99.90;;;;;;6107070;29;20731;-81
2022/01/03 07:59:23;;;;;;;10.38;2.60;;;11.00;99.90;;;;;;6092948;29;20043;-81
2022/01/03 08:02:24;;;;;;;12.00;2.80;;;11.00;99.90;;;;;;6123762;29;20036;-83
2022/01/03 08:05:25;;;;;;;9.57;3.08;;;11.00;99.90;;;;;;6090904;29;20491;-82
2022/01/03 08:08:26;;;;;;;7.38;2.60;;;11.00;99.90;;;;;;6108046;29;20040;-80
2022/01/03 08:11:29;;;;;;;8.27;2.60;;;11.10;99.90;;;;;;6107509;29;20028;-80
2022/01/03 08:14:29;;;;;;;9.07;2.72;;;11.00;99.90;;;;;;6108247;29;20091;-79
2022/01/03 08:17:30;;;;;;;7.53;2.55;;;10.90;99.90;;;;;;6105663;29;20035;-79
2022/01/03 08:20:31;;;;;;;8.35;3.08;;;11.00;99.90;;;;;;6122289;29;20502;-82
2022/01/03 08:23:32;;;;;;;7.45;2.47;;;11.00;99.90;;;;;;6107882;29;20099;-79
2022/01/03 08:26:34;;;;;;;5.10;2.50;;;11.00;99.90;;;;;;6105823;29;20126;-79
2022/01/03 08:29:34;;;;;;;7.72;2.65;;;11.00;99.90;;;;;;6091345;29;20063;-80
2022/01/03 08:32:35;;;;;;;6.95;2.72;;;9.70;99.90;;;;;;6092593;29;20541;-80
2022/01/03 08:35:35;;;;;;;10.82;3.33;;;11.00;99.90;;;;;;6106314;29;20047;-82
2022/01/03 08:38:36;;;;;;;10.18;3.42;;;11.00;99.90;;;;;;6091308;29;20378;-83
2022/01/03 08:41:37;;;;;;;7.88;3.17;;;11.10;99.90;;;;;;6090837;29;20036;-82
2022/01/03 08:44:37;;;;;;;10.23;2.55;;;11.20;99.90;;;;;;6092862;29;20548;-81
2022/01/03 08:47:38;;;;;;;8.73;2.85;;;11.10;99.90;;;;;;6104826;29;20027;-81
2022/01/03 08:50:39;;;;;;;4.80;2.60;;;11.30;99.90;;;;;;6107230;29;20024;-81
2022/01/03 08:53:39;;;;;;;7.43;3.00;;;11.20;99.90;;;;;;6092218;29;20530;-83
2022/01/03 08:56:40;;;;;;;10.88;2.65;;;11.20;99.90;;;;;;6107828;29;20048;-81
2022/01/03 08:59:41;;;;;;;9.52;3.13;;;11.10;99.90;;;;;;6092121;29;20031;-81
2022/01/03 09:02:41;;;;;;;8.95;2.50;;;11.20;99.90;;;;;;6123960;29;20455;-84
2022/01/03 09:05:42;;;;;;;7.07;2.60;;;11.30;99.90;;;;;;6086771;29;20086;-87
2022/01/03 09:08:42;;;;;;;8.35;3.00;;;11.60;99.90;;;;;;6104159;29;20028;-80
2022/01/03 09:11:43;;;;;;;9.75;2.92;;;11.70;99.90;;;;;;6103922;29;20489;-81
2022/01/03 09:14:44;;;;;;;9.20;2.75;;;11.40;99.90;;;;;;6108902;29;20043;-81
2022/01/03 09:17:44;;;;;;;14.45;3.13;;;11.40;99.90;;;;;;6105692;29;20036;-83
2022/01/03 09:20:45;;;;;;;15.63;3.40;;;11.60;99.90;;;;;;6119698;29;20083;-82
2022/01/03 09:23:50;;;;;;;13.82;3.92;;;11.50;99.90;;;;;;6108432;29;20045;-82
2022/01/03 09:30:10;;;;;;;7.75;2.58;;;11.50;99.90;;;;;;6107966;29;20537;-81
2022/01/03 09:33:12;;;;;;;10.45;3.38;;;11.60;99.90;;;;;;6122528;29;20079;-81
2022/01/03 09:36:13;;;;;;;7.65;3.55;;;;;;;;;;6093639;29;20055;-85
2022/01/03 09:39:14;;;;;;;11.48;2.83;;;;;;;;;;6120253;29;20478;-84
2022/01/03 09:42:15;;;;;;;8.70;2.42;;;;;;;;;;6123219;29;20067;-82
2022/01/03 09:45:16;;;;;;;9.43;2.90;;;;;;;;;;6124360;29;20032;-84
2022/01/03 09:48:17;;;;;;;5.03;2.60;;;11.70;99.90;;;;;;6123674;29;20034;-79
2022/01/03 09:51:27;;;;;;;10.05;2.80;;;11.50;99.90;;;;;;6106819;29;20031;-82
2022/01/03 09:54:28;;;;;;;6.32;2.60;;;11.90;99.90;;;;;;6121107;29;20044;-82
2022/01/03 09:57:29;;;;;;;9.35;2.70;;;11.50;99.90;;;;;;6105581;29;20127;-81
2022/01/03 10:00:30;;;;;;;6.25;2.60;;;11.70;99.90;;;;;;6088560;29;20038;-82
2022/01/03 10:03:30;;;;;;;7.70;2.80;;;11.70;99.90;;;;;;6090386;29;20036;-82
2022/01/03 10:06:31;;;;;;;9.73;3.08;;;;;;;;;;6105164;29;20035;-87
2022/01/03 10:09:32;;;;;;;9.68;3.25;;;11.60;99.90;;;;;;6122966;29;20063;-84
2022/01/03 10:12:34;;;;;;;9.40;3.10;;;11.60;99.90;;;;;;6105057;29;20031;-81
2022/01/03 10:15:35;;;;;;;7.07;2.78;;;11.50;99.90;;;;;;6103020;29;20075;-79
2022/01/03 10:18:36;;;;;;;11.82;3.03;;;11.50;99.90;;;;;;6104252;29;20122;-81
2022/01/03 10:21:37;;;;;;;6.93;2.97;;;11.50;99.90;;;;;;6118533;29;20047;-83
2022/01/03 10:24:38;;;;;;;8.60;3.77;;;11.50;99.90;;;;;;6122403;29;20031;-79
2022/01/03 10:27:52;;;;;;;7.97;2.65;;;11.60;99.90;;;;;;6121707;29;20770;-80
2022/01/03 10:30:53;;;;;;;10.75;2.80;;;11.50;99.90;;;;;;6120799;29;20359;-78
2022/01/03 10:34:08;;;;;;;6.32;2.67;;;11.60;99.90;;;;;;6120370;29;20042;-81
2022/01/03 10:37:10;;;;;;;7.30;2.70;;;11.70;99.90;;;;;;6119255;29;20386;-78
2022/01/03 10:40:22;;;;;;;8.45;3.17;;;12.10;99.90;;;;;;6103422;29;20035;-80
2022/01/03 10:43:23;;;;;;;5.97;2.58;;;12.10;99.90;;;;;;6120757;29;20031;-83
2022/01/03 10:46:27;;;;;;;8.50;3.33;;;12.00;99.90;;;;;;6120422;29;20055;-81
2022/01/03 10:49:28;;;;;;;10.63;4.05;;;12.00;99.90;;;;;;6117925;29;20028;-80
2022/01/03 10:52:29;;;;;;;5.70;2.75;;;11.80;99.90;;;;;;6118373;29;20049;-82
2022/01/03 10:55:33;;;;;;;8.93;2.90;;;11.80;99.90;;;;;;6105462;29;20478;-82
2022/01/03 10:58:34;;;;;;;6.90;2.58;;;11.80;99.90;;;;;;6103491;29;20028;-81
2022/01/03 11:01:34;;;;;;;6.45;2.28;;;11.70;99.90;;;;;;6126518;29;20031;-81
2022/01/03 11:04:57;;;;;;;8.82;2.83;;;11.70;99.90;;;;;;6130459;29;20094;-79
2022/01/03 11:11:07;;;;;;;6.82;2.70;;;11.50;99.90;;;;;;6110873;29;20086;-81
2022/01/03 11:14:33;;;;;;;6.82;2.60;;;11.60;99.90;;;;;;6111564;29;20135;-87
2022/01/03 11:17:36;;;;;;;7.20;2.53;;;;;;;;;;6126229;29;20036;-80
2022/01/03 11:20:36;;;;;;;10.02;2.75;;;11.50;99.90;;;;;;6127660;29;20043;-79
2022/01/03 11:23:37;;;;;;;5.68;2.75;;;11.90;99.90;;;;;;6111193;29;20046;-79
2022/01/03 11:26:43;;;;;;;6.50;2.78;;;11.70;99.90;;;;;;6109814;29;20538;-85
2022/01/03 11:29:44;;;;;;;8.73;3.30;;;11.70;99.90;;;;;;6126503;29;20046;-83
2022/01/03 11:32:48;;;;;;;15.07;9.18;;;12.10;99.90;;;;;;6094085;29;20031;-87
2022/01/03 11:35:50;;;;;;;12.55;4.13;;;11.70;99.90;;;;;;6108973;29;20044;-81
2022/01/03 11:38:50;;;;;;;9.40;3.15;;;11.60;99.90;;;;;;6110588;29;20036;-85
2022/01/03 11:41:53;;;;;;;10.82;3.30;;;11.60;99.90;;;;;;6095087;29;20130;-82
2022/01/03 11:44:54;;;;;;;8.35;3.10;;;11.60;99.90;;;;;;6111627;29;20035;-79
2022/01/03 11:47:54;;;;;;;9.07;3.40;;;11.50;99.90;;;;;;6112108;29;20040;-80
2022/01/03 11:50:56;;;;;;;11.82;3.42;;;11.50;99.90;;;;;;6109790;29;20040;-80
2022/01/03 11:53:57;;;;;;;8.82;2.85;;;11.80;99.90;;;;;;6110545;29;20039;-78
2022/01/03 11:57:17;;;;;;;6.90;2.90;;;11.80;99.90;;;;;;6129389;29;20490;-78
2022/01/03 12:03:39;;;;;;;8.77;3.35;;;11.70;99.90;;;;;;6127949;29;20031;-78
2022/01/03 12:06:41;;;;;;;14.55;5.50;;;11.70;99.90;;;;;;6112402;29;20402;-79
2022/01/03 12:09:43;;;;;;;9.77;6.72;;;11.60;99.90;;;;;;6111767;29;20063;-77
2022/01/03 12:12:44;;;;;;;;;;;11.60;99.90;;;;;;6108729;29;20132;-78
2022/01/03 12:15:45;;;;;;;6.55;3.05;;;11.60;99.90;;;;;;6107293;29;19946;-79
2022/01/03 12:18:59;;;;;;;10.40;3.03;;;11.70;99.90;;;;;;6107664;29;20431;-82
2022/01/03 12:22:07;;;;;;;9.82;3.10;;;11.60;99.90;;;;;;6107588;29;20048;-79
2022/01/03 12:25:08;;;;;;;6.15;2.90;;;11.50;99.90;;;;;;6106941;29;20044;-79
2022/01/03 12:28:10;;;;;;;8.50;2.70;;;11.70;99.90;;;;;;6106547;29;20067;-81
2022/01/03 12:31:10;;;;;;;7.22;4.50;;;11.70;99.90;;;;;;6122687;29;20553;-81
2022/01/03 12:34:17;;;;;;;5.93;2.60;;;11.70;99.90;;;;;;6108289;29;20040;-80
2022/01/03 12:37:20;;;;;;;7.35;2.63;;;11.70;99.90;;;;;;6106561;29;20045;-81
2022/01/03 12:40:22;;;;;;;;;;;11.70;99.90;;;;;;6103790;29;20119;-80
2022/01/03 12:43:34;;;;;;;8.00;2.80;;;12.00;99.90;;;;;;6104317;29;19911;-80
2022/01/03 12:46:35;;;;;;;6.28;3.17;;;11.80;99.90;;;;;;6106763;29;20036;-81
2022/01/03 12:49:35;;;;;;;8.23;4.28;;;11.80;99.90;;;;;;6123062;29;20491;-81
2022/01/03 12:52:42;;;;;;;11.77;6.15;;;11.90;99.90;;;;;;6104412;29;20031;-82
2022/01/03 12:55:52;;;;;;;8.13;3.45;;;11.90;99.90;;;;;;6121342;29;20036;-82
2022/01/03 12:58:53;;;;;;;7.00;3.00;;;11.90;99.90;;;;;;6107110;29;20043;-79
2022/01/03 13:01:53;;;;;;;8.70;4.55;;;11.80;99.90;;;;;;6107586;29;20035;-80
2022/01/03 13:04:54;;;;;;;15.88;4.05;;;11.90;99.90;;;;;;6107403;29;20462;-80
2022/01/03 13:07:54;;;;;;;8.50;3.38;;;12.00;99.90;;;;;;6123904;29;20040;-82
2022/01/03 13:11:00;;;;;;;6.47;3.20;;;12.30;99.90;;;;;;6106814;29;20122;-81
2022/01/03 13:14:03;;;;;;;3.67;2.38;;;12.20;99.90;;;;;;6103617;29;20028;-81
2022/01/03 13:17:04;;;;;;;7.43;2.58;;;12.20;99.90;;;;;;6106750;29;20134;-82
2022/01/03 13:20:05;;;;;;;9.00;3.50;;;12.00;99.90;;;;;;6108330;29;20031;-83
2022/01/03 13:23:05;;;;;;;5.90;3.05;;;11.90;99.90;;;;;;6122191;29;20052;-83
2022/01/03 13:26:06;;;;;;;7.43;2.30;;;11.90;99.90;;;;;;6106360;29;20739;-84
2022/01/03 13:29:06;;;;;;;5.30;2.60;;;11.80;99.90;;;;;;6105886;29;20044;-83
2022/01/03 13:32:07;;;;;;;5.40;3.25;;;11.80;99.90;;;;;;6106895;29;20043;-83
2022/01/03 13:35:08;;;;;;;9.52;3.63;;;11.90;99.90;;;;;;6092560;29;20075;-83
2022/01/03 13:38:16;;;;;;;8.20;2.78;;;11.90;99.90;;;;;;6106360;29;20028;-83
2022/01/03 13:41:19;;;;;;;5.85;3.40;;;11.90;99.90;;;;;;6089881;29;20039;-82
2022/01/03 13:44:43;;;;;;;;;;;11.90;99.90;;;;;;6106595;29;20035;-82
2022/01/03 13:51:08;;;;;;;4.95;2.22;;;11.90;99.90;;;;;;6108316;29;20044;-82
2022/01/03 13:54:08;;;;;;;5.22;2.25;;;11.90;99.90;;;;;;6105699;29;20031;-82
2022/01/03 13:57:09;;;;;;;8.52;3.80;;;11.90;99.90;;;;;;6107088;29;20110;-82
2022/01/03 14:00:11;;;;;;;5.93;2.25;;;11.90;99.90;;;;;;6105234;29;20062;-78
2022/01/03 14:03:15;;;;;;;;;;;11.90;99.90;;;;;;6122657;29;20079;-79
2022/01/03 14:06:19;;;;;;;8.50;3.05;;;12.40;99.90;;;;;;6121526;29;19953;-80
2022/01/03 14:09:20;;;;;;;6.32;2.63;;;12.90;99.90;;;;;;6121798;29;20043;-84
2022/01/03 14:12:21;;;;;;;6.03;2.47;;;;;;;;;;6089805;29;20507;-83
2022/01/03 14:15:21;;;;;;;9.48;2.78;;;12.80;99.90;;;;;;6118678;29;20083;-81
2022/01/03 14:18:33;;;;;;;5.50;2.40;;;12.60;99.90;;;;;;6104578;29;20086;-82
2022/01/03 14:21:34;;;;;;;9.10;2.53;;;12.40;99.90;;;;;;6120841;29;20051;-85
2022/01/03 14:24:34;;;;;;;4.40;2.40;;;12.20;99.90;;;;;;6090229;29;20047;-82
2022/01/03 14:27:59;;;;;;;4.20;2.47;;;12.10;99.90;;;;;;6087752;29;20050;-86
2022/01/03 14:31:00;;;;;;;16.80;2.92;;;12.00;99.90;;;;;;6099802;29;20042;-85
2022/01/03 14:34:04;;;;;;;5.53;3.03;;;11.90;99.90;;;;;;6103969;29;20550;-85
2022/01/03 14:37:05;;;;;;;5.93;2.42;;;11.70;99.90;;;;;;6104009;29;20035;-85
2022/01/03 14:40:07;;;;;;;6.45;2.30;;;11.50;99.90;;;;;;6102494;29;20028;-80
2022/01/03 14:43:08;;;;;;;8.95;2.65;;;11.70;99.90;;;;;;6105548;29;20414;-84
2022/01/03 14:46:09;;;;;;;7.45;1.98;;;11.60;99.90;;;;;;6103911;29;20039;-84
2022/01/03 14:49:19;;;;;;;4.18;2.20;;;11.60;99.90;;;;;;6086896;29;20031;-83
2022/01/03 14:52:39;;;;;;;7.10;4.18;;;11.60;99.90;;;;;;6103773;29;20102;-83
2022/01/03 14:55:42;;;;;;;5.22;2.38;;;11.60;99.90;;;;;;6104800;29;20042;-83
2022/01/03 14:58:42;;;;;;;2.85;2.38;;;11.50;99.90;;;;;;6073646;29;20469;-83
2022/01/03 15:01:45;;;;;;;9.23;2.83;;;11.50;99.90;;;;;;6105700;29;20027;-81
2022/01/03 15:04:45;;;;;;;6.22;2.13;;;11.50;99.90;;;;;;6105918;29;20045;-81
2022/01/03 15:07:46;;;;;;;6.75;2.42;;;11.40;99.90;;;;;;6104295;29;20035;-81
2022/01/03 15:10:46;;;;;;;5.57;2.28;;;11.40;99.90;;;;;;6105305;29;20032;-81
2022/01/03 15:13:48;;;;;;;5.15;2.30;;;11.40;99.90;;;;;;6121578;29;20027;-81
2022/01/03 15:16:49;;;;;;;4.63;2.10;;;11.40;99.90;;;;;;6089706;29;20058;-81
2022/01/03 15:19:50;;;;;;;7.20;2.50;;;11.40;99.90;;;;;;6105787;29;20036;-81
2022/01/03 15:22:51;;;;;;;5.57;2.42;;;11.40;99.90;;;;;;6105397;29;20159;-82
2022/01/03 15:25:52;;;;;;;5.00;2.08;;;11.40;99.90;;;;;;6121588;29;20364;-82
2022/01/03 15:28:52;;;;;;;4.05;2.70;;;11.40;99.90;;;;;;6121523;29;20047;-82
2022/01/03 15:31:53;;;;;;;9.02;2.72;;;11.40;99.90;;;;;;6089476;29;20030;-83
2022/01/03 15:34:53;;;;;;;5.00;2.10;;;11.30;99.90;;;;;;6121483;29;20387;-81
2022/01/03 15:37:54;;;;;;;4.50;2.10;;;11.40;99.90;;;;;;6121719;29;20051;-82
2022/01/03 15:40:54;;;;;;;4.57;2.42;;;11.50;99.90;;;;;;6119301;29;20494;-81
2022/01/03 15:43:55;;;;;;;7.25;2.50;;;11.30;99.90;;;;;;6099791;29;20538;-81
2022/01/03 15:46:56;;;;;;;5.03;2.15;;;11.30;99.90;;;;;;6104947;29;20532;-80
2022/01/03 15:49:57;;;;;;;7.93;2.17;;;11.30;99.90;;;;;;6094147;29;20094;-79
2022/01/03 15:53:01;;;;;;;5.15;2.47;;;11.30;99.90;;;;;;6109961;29;20032;-79
2022/01/03 15:56:02;;;;;;;4.25;2.10;;;11.30;99.90;;;;;;6109270;29;20100;-81
2022/01/03 15:59:04;;;;;;;8.15;2.67;;;11.40;99.90;;;;;;6124967;29;20110;-79
2022/01/03 16:02:04;;;;;;;8.15;2.33;;;11.30;99.90;;;;;;6125103;29;20043;-81
2022/01/03 16:05:05;;;;;;;8.00;2.47;;;11.20;99.90;;;;;;6121327;29;20030;-79
2022/01/03 16:08:08;;;;;;;5.38;2.10;;;11.40;99.90;;;;;;6108710;29;20066;-79
2022/01/03 16:11:09;;;;;;;3.83;1.88;;;11.40;99.90;;;;;;6108403;29;20119;-81
2022/01/03 16:14:10;;;;;;;4.53;2.20;;;;;;;;;;6124196;29;20040;-79